Terminal Aerodrome Forecast
Issued by NWS

Home | Current Version | Previous Version | Text Only | Print | Product List | Glossary On
Versions: 1 2 3 4 5 6 7 8 9 10 11 12 13 14
000
FTUS45 KVEF 250500
TAFVGT
TAF
KVGT 250520Z 2506/2606 20008KT P6SM SCT250
     FM251400 16008KT P6SM BKN200
     FM251800 23025G35KT P6SM SCT140 BKN200
     FM260200 24018G28KT P6SM VCSH BKN140=

USA.gov is the U.S. government's official web portal to all federal, state and local government web resources and services.